Mimoso do Sul, Brazil
Current Conditions -  °F | °C
As of 9:00 PM on Thursday 27 Nov 2014 (Local Time) from SBCP Reporting Station
Broken Clouds Broken Clouds  
Wind Chill: 77°   Ceiling: 1000
Heat Index: 78°   Visibility: 6mi
Dew Point: 73°   Wind: 16mph
Humidity: 89%   Direction: 180°S
Pressure: 29.85"   Gusts: NA
Location:  21.06°S, 41.37°W
Report Text: SBCP 272300Z 18014KT 9999 BKN010 25/23 Q1011
Loading
Personal Weather Stations






























Interactive Weather Map New forecast layout! Learn more

10-Day Weather Forecast

Advertisements
Track Severe Weather on mobile